Time;durP1;ratioP1;P1;durP2;ratioP2;P2;SDS_P1;SDS_P2;PMS_P1;PMS_P2;Temp;Humidity;BMP_temperature;BMP_pressure;BME280_temperature;BME280_humidity;BME280_pressure;Samples;Min_cycle;Max_cycle;Signal;HPM_P1;HPM_P2
2023/06/02 00:01:06;;;;;;;10.95;6.15;;;;;;;;;;5039450;28;20068;-61
2023/06/02 00:03:33;;;;;;;15.20;5.78;;;;;;;;;;5039289;28;20145;-61
2023/06/02 00:06:03;;;;;;;12.68;6.20;;;;;;;;;;5039283;28;20124;-58
2023/06/02 00:08:28;;;;;;;11.85;5.75;;;;;;;;;;5021523;28;20484;-61
2023/06/02 00:10:54;;;;;;;23.20;7.25;;;;;;;;;;5039303;28;20035;-59
2023/06/02 00:13:20;;;;;;;37.00;8.35;;;;;;;;;;5039245;28;20017;-60
2023/06/02 00:15:45;;;;;;;11.85;6.13;;;;;;;;;;5038892;28;20132;-62
2023/06/02 00:18:10;;;;;;;12.48;7.25;;;;;;;;;;5039399;28;20020;-61
2023/06/02 00:20:36;;;;;;;17.20;6.35;;;;;;;;;;5038471;28;20387;-58
2023/06/02 00:23:02;;;;;;;13.98;6.38;;;;;;;;;;5039180;28;20479;-59
2023/06/02 00:25:28;;;;;;;12.35;6.20;;;;;;;;;;5036134;28;20028;-57
2023/06/02 00:27:53;;;;;;;12.82;6.65;;;;;;;;;;5059187;28;20445;-62
2023/06/02 00:30:18;;;;;;;11.52;6.70;;;;;;;;;;5058562;28;20074;-59
2023/06/02 00:32:43;;;;;;;11.77;6.32;;;;;;;;;;5059011;28;20020;-61
2023/06/02 00:35:09;;;;;;;11.02;6.65;;;;;;;;;;5040680;28;20297;-59
2023/06/02 00:37:34;;;;;;;11.05;7.05;;;;;;;;;;5058554;28;20020;-61
2023/06/02 00:39:59;;;;;;;11.90;7.15;;;;;;;;;;5058969;28;20056;-60
2023/06/02 00:42:25;;;;;;;13.52;6.97;;;;;;;;;;5058427;28;20486;-58
2023/06/02 00:44:50;;;;;;;12.80;6.80;;;;;;;;;;5058895;28;20025;-61
2023/06/02 00:47:15;;;;;;;11.90;7.13;;;;;;;;;;5058211;28;20245;-58
2023/06/02 00:49:59;;;;;;;13.30;7.20;;;;;;;;;;5058806;28;20032;-62
2023/06/02 00:52:25;;;;;;;12.35;6.72;;;;;;;;;;5058499;28;20177;-57
2023/06/02 00:54:50;;;;;;;16.00;7.35;;;;;;;;;;5058507;28;20456;-60
2023/06/02 00:57:16;;;;;;;17.80;7.03;;;;;;;;;;5058179;28;20047;-60
2023/06/02 00:59:42;;;;;;;12.20;7.22;;;;;;;;;;5058228;28;20032;-60
2023/06/02 01:02:08;;;;;;;72.85;65.03;;;;;;;;;;5057721;28;20047;-59
2023/06/02 01:04:35;;;;;;;133.52;122.75;;;;;;;;;;5058536;28;20457;-59
2023/06/02 01:07:02;;;;;;;130.02;119.72;;;;;;;;;;5057958;28;20079;-58
2023/06/02 01:09:28;;;;;;;115.88;106.13;;;;;;;;;;5058023;28;20078;-61
2023/06/02 01:11:53;;;;;;;104.25;95.95;;;;;;;;;;5057841;28;20383;-62
2023/06/02 01:14:18;;;;;;;198.00;180.20;;;;;;;;;;5057892;28;20541;-59
2023/06/02 01:16:44;;;;;;;196.55;177.82;;;;;;;;;;5057802;28;20100;-59
2023/06/02 01:19:13;;;;;;;215.35;195.15;;;;;;;;;;5057510;28;20463;-61
2023/06/02 01:21:39;;;;;;;248.65;224.52;;;;;;;;;;5057684;28;20537;-60
2023/06/02 01:24:05;;;;;;;259.95;234.20;;;;;;;;;;5035324;28;20017;-60
2023/06/02 01:26:34;;;;;;;271.77;243.30;;;;;;;;;;5037668;28;20044;-60
2023/06/02 01:28:59;;;;;;;244.82;219.23;;;;;;;;;;5037404;28;20037;-61
2023/06/02 01:31:35;;;;;;;258.13;229.85;;;;;;;;;;5036703;28;20495;-59
2023/06/02 01:34:06;;;;;;;443.30;402.13;;;;;;;;;;5037531;28;20103;-61
2023/06/02 01:36:32;;;;;;;306.45;272.63;;;;;;;;;;5037715;28;20464;-60
2023/06/02 01:38:58;;;;;;;434.30;390.08;;;;;;;;;;5037122;28;20053;-59
2023/06/02 01:41:27;;;;;;;320.38;258.45;;;;;;;;;;5037431;28;20067;-55
2023/06/02 01:43:53;;;;;;;15.37;7.53;;;;;;;;;;5037221;28;20433;-59
2023/06/02 01:46:18;;;;;;;12.60;7.53;;;;;;;;;;5037599;28;20037;-60
2023/06/02 01:48:44;;;;;;;23.30;7.57;;;;;;;;;;5037346;28;20025;-56
2023/06/02 01:51:09;;;;;;;15.88;7.72;;;;;;;;;;5037059;28;20350;-62
2023/06/02 01:53:35;;;;;;;15.65;7.72;;;;;;;;;;5037497;28;20032;-59
2023/06/02 01:56:00;;;;;;;10.85;6.95;;;;;;;;;;5036579;28;20025;-60
2023/06/02 01:58:25;;;;;;;12.63;7.10;;;;;;;;;;5037227;28;20048;-59
2023/06/02 02:00:54;;;;;;;162.77;149.50;;;;;;;;;;5037076;28;20044;-58
2023/06/02 02:03:19;;;;;;;186.13;169.73;;;;;;;;;;5037454;28;20115;-60
2023/06/02 02:05:44;;;;;;;189.30;172.20;;;;;;;;;;5036788;28;20096;-59
2023/06/02 02:08:12;;;;;;;96.88;88.78;;;;;;;;;;5036933;28;20025;-61
2023/06/02 02:10:37;;;;;;;203.00;183.00;;;;;;;;;;5036961;28;20500;-60
2023/06/02 02:13:02;;;;;;;46.38;41.38;;;;;;;;;;5036996;28;20113;-58
2023/06/02 02:15:27;;;;;;;71.10;59.58;;;;;;;;;;5037228;28;20075;-62
2023/06/02 02:17:56;;;;;;;57.95;52.45;;;;;;;;;;5036796;28;20029;-59
2023/06/02 02:20:22;;;;;;;15.38;7.57;;;;;;;;;;5036920;28;20056;-60
2023/06/02 02:22:47;;;;;;;14.70;7.60;;;;;;;;;;5036670;28;20608;-60
2023/06/02 02:25:12;;;;;;;16.35;9.20;;;;;;;;;;5050339;28;20056;-60
2023/06/02 02:27:39;;;;;;;15.55;9.05;;;;;;;;;;5056871;28;20028;-59
2023/06/02 02:30:05;;;;;;;29.23;18.80;;;;;;;;;;5056491;28;20036;-59
2023/06/02 02:32:33;;;;;;;13.55;7.85;;;;;;;;;;5057163;28;20020;-61
2023/06/02 02:34:58;;;;;;;14.50;8.00;;;;;;;;;;5038361;28;20628;-61
2023/06/02 02:37:23;;;;;;;16.08;8.40;;;;;;;;;;5057077;28;20343;-60
2023/06/02 02:39:49;;;;;;;11.05;7.45;;;;;;;;;;5056737;28;20029;-57
2023/06/02 02:42:14;;;;;;;18.33;7.55;;;;;;;;;;5056751;28;20013;-61
2023/06/02 02:44:39;;;;;;;13.07;7.97;;;;;;;;;;5056752;28;20017;-59
2023/06/02 02:47:05;;;;;;;16.15;7.55;;;;;;;;;;5056697;28;20246;-62
2023/06/02 02:49:30;;;;;;;21.60;10.40;;;;;;;;;;5056349;28;20016;-61
2023/06/02 02:51:56;;;;;;;16.92;7.78;;;;;;;;;;5056575;28;20025;-59
2023/06/02 02:54:22;;;;;;;17.42;7.95;;;;;;;;;;5056827;28;20236;-61
2023/06/02 02:56:47;;;;;;;13.57;7.72;;;;;;;;;;5055979;28;20559;-57
2023/06/02 02:59:12;;;;;;;11.88;7.15;;;;;;;;;;5056589;28;20028;-58
2023/06/02 03:01:43;;;;;;;12.23;7.47;;;;;;;;;;5056556;28;20495;-59
2023/06/02 03:04:09;;;;;;;11.48;7.63;;;;;;;;;;5056452;28;20115;-61
2023/06/02 03:06:37;;;;;;;16.58;8.27;;;;;;;;;;5056216;28;20866;-59
2023/06/02 03:09:02;;;;;;;17.20;7.53;;;;;;;;;;5056383;28;20025;-58
2023/06/02 03:11:28;;;;;;;12.05;7.57;;;;;;;;;;5056857;28;20025;-58
2023/06/02 03:13:53;;;;;;;14.43;7.95;;;;;;;;;;5055902;28;20052;-56
2023/06/02 03:16:19;;;;;;;15.93;8.13;;;;;;;;;;5056515;28;20033;-62
2023/06/02 03:18:44;;;;;;;14.95;8.43;;;;;;;;;;5056178;28;20126;-60
2023/06/02 03:21:10;;;;;;;18.92;9.00;;;;;;;;;;5055816;28;20036;-56
2023/06/02 03:23:36;;;;;;;14.48;9.00;;;;;;;;;;5038086;28;20028;-61
2023/06/02 03:26:02;;;;;;;15.25;8.20;;;;;;;;;;5036226;28;20017;-61
2023/06/02 03:28:27;;;;;;;13.38;7.95;;;;;;;;;;5036462;28;20017;-59
2023/06/02 03:30:53;;;;;;;12.77;8.07;;;;;;;;;;5035925;28;20171;-59
2023/06/02 03:33:18;;;;;;;19.67;9.55;;;;;;;;;;5036002;28;20021;-61
2023/06/02 03:35:43;;;;;;;14.10;8.40;;;;;;;;;;5036174;28;20512;-59
2023/06/02 03:38:09;;;;;;;14.65;8.13;;;;;;;;;;5036200;28;20388;-59
2023/06/02 03:40:34;;;;;;;14.25;8.75;;;;;;;;;;5018303;28;20361;-57
2023/06/02 03:43:00;;;;;;;16.42;8.77;;;;;;;;;;5036253;28;20021;-61
2023/06/02 03:45:25;;;;;;;39.45;10.60;;;;;;;;;;5035596;28;20037;-59
2023/06/02 03:47:50;;;;;;;23.90;9.55;;;;;;;;;;5012405;28;20041;-61
2023/06/02 03:50:16;;;;;;;28.00;9.48;;;;;;;;;;5012594;28;20037;-59
2023/06/02 03:52:41;;;;;;;23.15;9.07;;;;;;;;;;5012803;28;20037;-59
2023/06/02 03:55:06;;;;;;;30.67;10.40;;;;;;;;;;5013393;28;20053;-58
2023/06/02 03:57:32;;;;;;;20.45;9.63;;;;;;;;;;4999408;28;20112;-59
2023/06/02 03:59:57;;;;;;;23.60;9.32;;;;;;;;;;5016495;28;20603;-62
2023/06/02 04:02:22;;;;;;;25.40;10.63;;;;;;;;;;5016234;28;20037;-59
2023/06/02 04:04:48;;;;;;;15.57;9.90;;;;;;;;;;5016897;28;20029;-62
2023/06/02 04:07:13;;;;;;;19.60;9.68;;;;;;;;;;5017717;28;20049;-60
2023/06/02 04:09:38;;;;;;;22.33;9.82;;;;;;;;;;5016573;28;20380;-61
2023/06/02 04:12:04;;;;;;;18.58;8.90;;;;;;;;;;5016908;28;20349;-62
2023/06/02 04:14:30;;;;;;;17.13;8.80;;;;;;;;;;5000081;28;20109;-60
2023/06/02 04:16:56;;;;;;;17.27;7.32;;;;;;;;;;5016995;28;20029;-62
2023/06/02 04:19:21;;;;;;;15.55;8.70;;;;;;;;;;5015231;28;20582;-61
2023/06/02 04:21:46;;;;;;;14.50;8.23;;;;;;;;;;5039174;28;20056;-61
2023/06/02 04:24:12;;;;;;;17.40;8.38;;;;;;;;;;5044326;28;20020;-57
2023/06/02 04:26:37;;;;;;;13.75;7.80;;;;;;;;;;5059221;28;20063;-61
2023/06/02 04:29:02;;;;;;;12.80;8.10;;;;;;;;;;5058733;28;20353;-57
2023/06/02 04:31:37;;;;;;;17.88;9.30;;;;;;;;;;5059087;28;20082;-62
2023/06/02 04:34:02;;;;;;;14.57;7.70;;;;;;;;;;5058532;28;20082;-60
2023/06/02 04:36:28;;;;;;;11.48;7.82;;;;;;;;;;5058620;28;20438;-60
2023/06/02 04:38:53;;;;;;;16.90;9.18;;;;;;;;;;5040725;28;20447;-61
2023/06/02 04:41:18;;;;;;;18.98;9.82;;;;;;;;;;5058508;28;20090;-60
2023/06/02 04:43:44;;;;;;;13.52;7.45;;;;;;;;;;5059179;28;20063;-58
2023/06/02 04:46:10;;;;;;;12.40;7.25;;;;;;;;;;5058244;28;20523;-60
2023/06/02 04:48:37;;;;;;;12.38;7.88;;;;;;;;;;5061972;28;20048;-58
2023/06/02 04:51:02;;;;;;;16.48;7.88;;;;;;;;;;5063679;28;20592;-61
2023/06/02 04:53:28;;;;;;;19.63;8.53;;;;;;;;;;5062718;28;20483;-58
2023/06/02 04:55:53;;;;;;;13.43;7.43;;;;;;;;;;5061158;28;20240;-60
2023/06/02 04:58:18;;;;;;;14.65;7.25;;;;;;;;;;5061370;28;20471;-61
2023/06/02 05:00:44;;;;;;;17.23;7.77;;;;;;;;;;5060758;28;20033;-59
2023/06/02 05:03:09;;;;;;;15.00;8.50;;;;;;;;;;5060557;28;20336;-61
2023/06/02 05:05:34;;;;;;;12.88;7.00;;;;;;;;;;5060351;28;20081;-58
2023/06/02 05:08:00;;;;;;;12.38;7.22;;;;;;;;;;5058470;28;20048;-61
2023/06/02 05:10:25;;;;;;;11.48;8.00;;;;;;;;;;5060694;28;20036;-60
2023/06/02 05:12:52;;;;;;;15.45;7.22;;;;;;;;;;5058985;28;20104;-56
2023/06/02 05:15:18;;;;;;;15.65;7.88;;;;;;;;;;5058449;28;20122;-61
2023/06/02 05:17:46;;;;;;;11.73;7.88;;;;;;;;;;5058440;28;20465;-61
2023/06/02 05:20:11;;;;;;;10.13;7.65;;;;;;;;;;5058235;28;20033;-60
2023/06/02 05:22:36;;;;;;;14.05;7.63;;;;;;;;;;5058466;28;20391;-59
2023/06/02 05:25:02;;;;;;;9.00;5.55;;;;;;;;;;5045758;28;20460;-60
2023/06/02 05:27:27;;;;;;;12.63;6.00;;;;;;;;;;5038245;28;20023;-62
2023/06/02 05:29:52;;;;;;;9.93;6.10;;;;;;;;;;5037348;28;20021;-58
2023/06/02 05:32:22;;;;;;;15.40;7.30;;;;;;;;;;5039781;28;20469;-62
2023/06/02 05:34:47;;;;;;;14.45;7.78;;;;;;;;;;5038475;28;20238;-60
2023/06/02 05:37:12;;;;;;;9.90;6.25;;;;;;;;;;5038781;28;20468;-59
2023/06/02 05:39:39;;;;;;;11.63;7.87;;;;;;;;;;5043053;28;20036;-61
2023/06/02 05:42:05;;;;;;;8.77;5.85;;;;;;;;;;5047802;28;20332;-58
2023/06/02 05:44:30;;;;;;;18.27;9.00;;;;;;;;;;5059988;28;20100;-60
2023/06/02 05:46:55;;;;;;;14.68;5.90;;;;;;;;;;5029799;28;20029;-59
2023/06/02 05:49:21;;;;;;;12.00;6.10;;;;;;;;;;5039060;28;20016;-57
2023/06/02 05:51:46;;;;;;;16.47;7.03;;;;;;;;;;5038303;28;20243;-58
2023/06/02 05:54:11;;;;;;;7.95;5.47;;;;;;;;;;5040058;28;20801;-60
2023/06/02 05:56:37;;;;;;;12.60;6.13;;;;;;;;;;5046700;28;20030;-58
2023/06/02 05:59:02;;;;;;;13.05;6.57;;;;;;;;;;5003385;28;20060;-60
2023/06/02 06:01:28;;;;;;;16.95;5.70;;;;;;;;;;5060451;28;20040;-59
2023/06/02 06:03:53;;;;;;;10.50;5.00;;;;;;;;;;5048823;28;20455;-60
2023/06/02 06:06:18;;;;;;;11.20;5.03;;;;;;;;;;5064279;28;20059;-60
2023/06/02 06:08:44;;;;;;;7.90;5.23;;;;;;;;;;5063758;28;20012;-62
2023/06/02 06:11:10;;;;;;;11.52;6.40;;;;;;;;;;5061079;28;20264;-57
2023/06/02 06:13:35;;;;;;;9.55;5.18;;;;;;;;;;5044577;28;20477;-56
2023/06/02 06:16:00;;;;;;;11.18;5.15;;;;;;;;;;5044258;28;20547;-61
2023/06/02 06:18:26;;;;;;;10.83;5.60;;;;;;;;;;5049042;28;20094;-60
2023/06/02 06:20:51;;;;;;;11.10;5.60;;;;;;;;;;5055538;28;20523;-60
2023/06/02 06:23:16;;;;;;;8.65;4.93;;;;;;;;;;5053965;28;20032;-62
2023/06/02 06:25:41;;;;;;;11.30;5.47;;;;;;;;;;5042689;28;20051;-63
2023/06/02 06:28:07;;;;;;;8.13;4.18;;;;;;;;;;5043947;28;20274;-64
2023/06/02 06:30:32;;;;;;;11.73;4.93;;;;;;;;;;5040587;28;20048;-63
2023/06/02 06:32:59;;;;;;;10.25;4.63;;;;;;;;;;5049339;28;20148;-62
2023/06/02 06:35:25;;;;;;;17.38;6.03;;;;;;;;;;5048346;28;20028;-63
2023/06/02 06:37:50;;;;;;;14.13;5.18;;;;;;;;;;5058102;28;20028;-62
2023/06/02 06:40:15;;;;;;;11.18;4.75;;;;;;;;;;5020019;28;20132;-63
2023/06/02 06:42:41;;;;;;;9.07;5.40;;;;;;;;;;5053175;28;20333;-65
2023/06/02 06:45:06;;;;;;;12.52;4.93;;;;;;;;;;5061182;28;20050;-62
2023/06/02 06:47:31;;;;;;;10.65;4.50;;;;;;;;;;5048079;28;20066;-62
2023/06/02 06:49:57;;;;;;;14.30;5.40;;;;;;;;;;5061044;28;20483;-66
2023/06/02 06:52:22;;;;;;;14.00;4.90;;;;;;;;;;5051546;28;20032;-62
2023/06/02 06:54:47;;;;;;;6.72;4.25;;;;;;;;;;5060111;28;20468;-65
2023/06/02 06:57:13;;;;;;;10.40;4.70;;;;;;;;;;5024322;28;20036;-62
2023/06/02 06:59:44;;;;;;;8.17;5.07;;;;;;;;;;5047055;28;20425;-61
2023/06/02 07:02:10;;;;;;;14.13;4.63;;;;;;;;;;5047613;28;20091;-63
2023/06/02 07:04:35;;;;;;;9.70;4.40;;;;;;;;;;5044433;28;20025;-64
2023/06/02 07:07:01;;;;;;;7.18;4.68;;;;;;;;;;5056306;28;20574;-65
2023/06/02 07:09:26;;;;;;;13.43;4.20;;;;;;;;;;5044758;28;20028;-61
2023/06/02 07:11:51;;;;;;;6.83;4.43;;;;;;;;;;5026665;28;20423;-64
2023/06/02 07:14:17;;;;;;;7.47;4.80;;;;;;;;;;5055974;28;20103;-61
2023/06/02 07:16:46;;;;;;;8.80;4.55;;;;;;;;;;5045114;28;20021;-65
2023/06/02 07:19:11;;;;;;;6.65;4.13;;;;;;;;;;5026882;28;20693;-64
2023/06/02 07:21:37;;;;;;;6.53;4.03;;;;;;;;;;5047549;28;20021;-61
2023/06/02 07:24:03;;;;;;;8.57;4.40;;;;;;;;;;5053580;28;20273;-63
2023/06/02 07:26:28;;;;;;;6.97;3.85;;;;;;;;;;5027483;28;20025;-66
2023/06/02 07:28:53;;;;;;;6.90;4.23;;;;;;;;;;5047552;28;20090;-63
2023/06/02 07:31:19;;;;;;;4.90;3.60;;;;;;;;;;5046810;28;20334;-64
2023/06/02 07:33:45;;;;;;;6.88;4.05;;;;;;;;;;5047662;28;20417;-62
2023/06/02 07:36:11;;;;;;;6.45;4.30;;;;;;;;;;5047592;28;20016;-60
2023/06/02 07:38:36;;;;;;;7.30;4.15;;;;;;;;;;5047810;28;20725;-59
2023/06/02 07:41:02;;;;;;;9.60;4.40;;;;;;;;;;5056342;28;20037;-65
2023/06/02 07:43:27;;;;;;;5.80;4.13;;;;;;;;;;5029132;28;20029;-63
2023/06/02 07:45:52;;;;;;;11.18;4.47;;;;;;;;;;5001445;28;20033;-64
2023/06/02 07:48:17;;;;;;;8.40;4.57;;;;;;;;;;5054126;28;20571;-64
2023/06/02 07:50:43;;;;;;;8.63;4.57;;;;;;;;;;5056334;28;20274;-65
2023/06/02 07:53:08;;;;;;;10.50;4.20;;;;;;;;;;5064982;28;20086;-63
2023/06/02 07:55:33;;;;;;;10.43;4.47;;;;;;;;;;5010721;28;20276;-62
2023/06/02 07:57:59;;;;;;;11.80;4.40;;;;;;;;;;5050122;28;20282;-63
2023/06/02 08:00:24;;;;;;;10.40;4.15;;;;;;;;;;5059867;28;20748;-62
2023/06/02 08:02:50;;;;;;;6.20;4.30;;;;;;;;;;5066039;28;20027;-64
2023/06/02 08:05:16;;;;;;;9.15;4.68;;;;;;;;;;5053531;28;20476;-61
2023/06/02 08:07:41;;;;;;;5.22;4.30;;;;;;;;;;5046130;28;20051;-64
2023/06/02 08:10:07;;;;;;;7.53;4.28;;;;;;;;;;5046949;28;20032;-63
2023/06/02 08:12:32;;;;;;;7.35;4.65;;;;;;;;;;5050674;28;20111;-65
2023/06/02 08:14:58;;;;;;;6.97;3.80;;;;;;;;;;5052737;28;20090;-63
2023/06/02 08:17:29;;;;;;;10.13;4.60;;;;;;;;;;5047744;28;20017;-61
2023/06/02 08:19:54;;;;;;;5.03;3.92;;;;;;;;;;5041192;28;20388;-61
2023/06/02 08:24:57;;;;;;;9.98;4.68;;;;;;;;;;5056245;28;20375;-60
2023/06/02 08:27:22;;;;;;;8.07;3.72;;;;;;;;;;5051037;28;20431;-52
2023/06/02 08:29:49;;;;;;;13.02;5.20;;;;;;;;;;5049263;28;20079;-56
2023/06/02 08:32:16;;;;;;;6.95;3.90;;;;;;;;;;5030067;28;20022;-58
2023/06/02 08:34:42;;;;;;;11.13;4.00;;;;;;;;;;5033786;28;20017;-56
2023/06/02 08:37:16;;;;;;;8.67;3.80;;;;;;;;;;5050490;28;20016;-56
2023/06/02 08:39:41;;;;;;;8.02;4.45;;;;;;;;;;5047091;28;20352;-53
2023/06/02 08:42:08;;;;;;;7.47;3.90;;;;;;;;;;5028484;28;20474;-57
2023/06/02 08:44:34;;;;;;;8.38;4.05;;;;;;;;;;5033444;28;20044;-54
2023/06/02 08:47:00;;;;;;;7.00;4.13;;;;;;;;;;5026333;28;20033;-58
2023/06/02 08:49:27;;;;;;;9.20;4.03;;;;;;;;;;5039457;28;20078;-60
2023/06/02 08:51:59;;;;;;;6.10;4.18;;;;;;;;;;5039082;28;20057;-57
2023/06/02 08:54:25;;;;;;;10.85;4.18;;;;;;;;;;5022284;28;20090;-57
2023/06/02 08:56:51;;;;;;;5.85;3.60;;;;;;;;;;5041771;28;20550;-58
2023/06/02 08:59:20;;;;;;;9.05;4.05;;;;;;;;;;5030090;28;20297;-59
2023/06/02 09:01:48;;;;;;;6.38;4.03;;;;;;;;;;5033664;28;20021;-52
2023/06/02 09:04:13;;;;;;;10.07;3.47;;;;;;;;;;5027303;28;20041;-63
2023/06/02 09:06:39;;;;;;;12.48;3.88;;;;;;;;;;5024972;28;20210;-58
2023/06/02 09:09:04;;;;;;;10.37;4.10;;;;;;;;;;5038273;28;20351;-57
2023/06/02 09:11:30;;;;;;;7.47;3.90;;;;;;;;;;5039387;28;20261;-58
2023/06/02 09:13:56;;;;;;;7.95;3.58;;;;;;;;;;5057678;28;20254;-56
2023/06/02 09:16:22;;;;;;;105.50;37.67;;;;;;;;;;5030239;28;20036;-54
2023/06/02 09:18:57;;;;;;;10.95;4.00;;;;;;;;;;5032855;28;20132;-53
2023/06/02 09:21:26;;;;;;;10.85;4.60;;;;;;;;;;5021873;28;20419;-56
2023/06/02 09:23:52;;;;;;;836.28;744.55;;;;;;;;;;5025501;28;20397;-58
2023/06/02 09:26:18;;;;;;;936.17;836.67;;;;;;;;;;5024057;28;20786;-58
2023/06/02 09:28:44;;;;;;;947.97;846.65;;;;;;;;;;5022207;28;20118;-60
2023/06/02 09:31:10;;;;;;;957.75;856.25;;;;;;;;;;5028968;28;20346;-55
2023/06/02 09:33:36;;;;;;;944.00;842.53;;;;;;;;;;5030323;28;20036;-53
2023/06/02 09:36:04;;;;;;;966.00;864.38;;;;;;;;;;5036591;28;20455;-52
2023/06/02 09:38:41;;;;;;;952.03;850.17;;;;;;;;;;5011790;28;20032;-56
2023/06/02 09:41:15;;;;;;;908.90;811.67;;;;;;;;;;5007773;28;20025;-55
2023/06/02 09:43:41;;;;;;;924.00;825.40;;;;;;;;;;5006141;28;20029;-56
2023/06/02 09:46:06;;;;;;;929.72;830.30;;;;;;;;;;5021536;28;20044;-58
2023/06/02 09:48:34;;;;;;;907.10;809.65;;;;;;;;;;5014593;28;20022;-61
2023/06/02 09:51:00;;;;;;;828.13;729.40;;;;;;;;;;5014698;28;20461;-61
2023/06/02 09:53:25;;;;;;;835.95;743.05;;;;;;;;;;5019369;28;20041;-57
2023/06/02 09:55:51;;;;;;;846.97;742.85;;;;;;;;;;5022214;28;20507;-60
2023/06/02 09:58:16;;;;;;;819.35;722.45;;;;;;;;;;5024396;28;20139;-52
2023/06/02 10:00:42;;;;;;;832.08;713.15;;;;;;;;;;5025442;28;20052;-56
2023/06/02 10:03:07;;;;;;;835.25;721.92;;;;;;;;;;5025263;28;20029;-52
2023/06/02 10:05:37;;;;;;;818.20;713.67;;;;;;;;;;5022152;28;20024;-60
2023/06/02 10:08:17;;;;;;;829.65;724.50;;;;;;;;;;5025292;28;20025;-60
2023/06/02 10:10:46;;;;;;;837.60;736.80;;;;;;;;;;5025712;28;20029;-59
2023/06/02 10:13:11;;;;;;;;;;;;;;;;;;5025779;28;20083;-52
2023/06/02 10:15:49;;;;;;;825.20;729.35;;;;;;;;;;5025219;28;20327;-58
2023/06/02 10:18:34;;;;;;;748.55;633.70;;;;;;;;;;5008641;28;20026;-57
2023/06/02 10:21:11;;;;;;;11.85;4.63;;;;;;;;;;5021301;28;20034;-53
2023/06/02 10:23:39;;;;;;;4.65;3.88;;;;;;;;;;5015104;28;20077;-54
2023/06/02 10:26:08;;;;;;;7.20;3.88;;;;;;;;;;5021712;28;20029;-58
2023/06/02 10:28:33;;;;;;;;;;;;;;;;;;5025662;28;20056;-54
2023/06/02 10:31:08;;;;;;;6.18;4.45;;;;;;;;;;5024965;28;19913;-58
2023/06/02 10:33:43;;;;;;;5.28;3.60;;;;;;;;;;5025063;28;20022;-59
2023/06/02 10:36:09;;;;;;;5.43;4.15;;;;;;;;;;5022014;28;20488;-58
2023/06/02 10:38:38;;;;;;;6.23;3.57;;;;;;;;;;5015959;28;20074;-55
2023/06/02 10:41:04;;;;;;;7.35;4.15;;;;;;;;;;5018672;28;20338;-55
2023/06/02 10:43:29;;;;;;;930.45;848.33;;;;;;;;;;5011571;28;20065;-63
2023/06/02 10:46:14;;;;;;;1012.30;911.70;;;;;;;;;;5016368;28;20514;-55
2023/06/02 10:48:40;;;;;;;9.23;4.47;;;;;;;;;;5022270;28;20341;-58
2023/06/02 10:51:06;;;;;;;12.63;4.15;;;;;;;;;;5018161;28;20056;-54
2023/06/02 10:53:32;;;;;;;10.32;4.03;;;;;;;;;;5021016;28;20029;-55
2023/06/02 10:56:17;;;;;;;12.20;4.95;;;;;;;;;;5020149;28;20432;-59
2023/06/02 10:58:49;;;;;;;15.52;5.15;;;;;;;;;;5006206;28;20431;-58
2023/06/02 11:01:34;;;;;;;8.23;4.25;;;;;;;;;;5023119;28;20044;-56
2023/06/02 11:04:20;;;;;;;9.65;3.88;;;;;;;;;;5011439;28;20079;-60
2023/06/02 11:06:45;;;;;;;7.75;3.83;;;;;;;;;;5010198;28;20025;-54
2023/06/02 11:09:29;;;;;;;7.03;3.53;;;;;;;;;;5020284;28;20017;-58
2023/06/02 11:11:54;;;;;;;11.55;4.13;;;;;;;;;;5024108;28;20180;-55
2023/06/02 11:14:20;;;;;;;9.10;4.07;;;;;;;;;;5017493;28;20683;-59
2023/06/02 11:16:45;;;;;;;6.90;3.53;;;;;;;;;;5025364;28;20064;-53
2023/06/02 11:19:10;;;;;;;11.30;3.70;;;;;;;;;;5022240;28;20033;-57
2023/06/02 11:21:36;;;;;;;10.85;3.95;;;;;;;;;;5004795;28;20486;-56
2023/06/02 11:24:01;;;;;;;6.90;3.53;;;;;;;;;;5010307;28;20045;-56
2023/06/02 11:26:27;;;;;;;7.22;3.95;;;;;;;;;;5039850;28;20432;-57
2023/06/02 11:28:52;;;;;;;8.73;4.20;;;;;;;;;;5011688;28;20096;-62
2023/06/02 11:31:18;;;;;;;10.88;4.10;;;;;;;;;;5049479;28;20250;-61
2023/06/02 11:33:48;;;;;;;7.70;3.80;;;;;;;;;;5016778;28;20041;-60
2023/06/02 11:36:14;;;;;;;10.07;4.32;;;;;;;;;;5018282;28;20045;-55
2023/06/02 11:38:39;;;;;;;19.25;14.68;;;;;;;;;;5012291;28;20049;-67
2023/06/02 11:41:12;;;;;;;524.90;485.33;;;;;;;;;;5011479;28;20021;-60
2023/06/02 11:43:37;;;;;;;103.60;96.47;;;;;;;;;;5016742;28;20072;-65
2023/06/02 11:46:06;;;;;;;60.65;56.25;;;;;;;;;;5020764;28;20052;-61
2023/06/02 11:48:32;;;;;;;92.30;86.30;;;;;;;;;;5023780;28;20021;-64
2023/06/02 11:50:57;;;;;;;26.80;24.35;;;;;;;;;;5016769;28;20437;-56
2023/06/02 11:53:22;;;;;;;66.95;62.47;;;;;;;;;;5016201;28;20125;-56
2023/06/02 11:55:48;;;;;;;52.72;49.30;;;;;;;;;;5014709;28;20044;-58
2023/06/02 11:58:19;;;;;;;27.27;24.97;;;;;;;;;;5009304;28;20022;-52
2023/06/02 12:00:45;;;;;;;9.60;3.22;;;;;;;;;;5008648;28;20334;-64
2023/06/02 12:03:12;;;;;;;4.47;3.70;;;;;;;;;;5015644;28;20116;-58
2023/06/02 12:05:42;;;;;;;4.70;3.50;;;;;;;;;;5021457;28;20037;-61
2023/06/02 12:08:08;;;;;;;7.90;3.80;;;;;;;;;;5020863;28;20083;-52
2023/06/02 12:10:33;;;;;;;5.28;3.90;;;;;;;;;;5013165;28;20521;-61
2023/06/02 12:12:59;;;;;;;6.97;3.08;;;;;;;;;;5007866;28;20029;-64
2023/06/02 12:15:31;;;;;;;6.65;3.28;;;;;;;;;;5017368;28;20025;-59
2023/06/02 12:17:56;;;;;;;5.93;3.42;;;;;;;;;;5016956;28;20068;-56
2023/06/02 12:20:32;;;;;;;7.00;3.83;;;;;;;;;;5019611;28;20021;-59
2023/06/02 12:22:57;;;;;;;6.00;3.42;;;;;;;;;;5043241;28;20060;-57
2023/06/02 12:25:23;;;;;;;9.47;3.67;;;;;;;;;;5023343;28;20026;-57
2023/06/02 12:27:49;;;;;;;10.55;3.67;;;;;;;;;;5016044;28;20497;-59
2023/06/02 12:30:15;;;;;;;7.97;3.97;;;;;;;;;;5020996;28;20386;-62
2023/06/02 12:32:40;;;;;;;7.38;3.63;;;;;;;;;;5016337;28;20026;-56
2023/06/02 12:35:06;;;;;;;5.80;3.15;;;;;;;;;;5022629;28;20029;-55
2023/06/02 12:37:31;;;;;;;6.43;3.83;;;;;;;;;;5026396;28;20029;-53
2023/06/02 12:39:56;;;;;;;7.53;3.67;;;;;;;;;;5037249;28;20025;-57
2023/06/02 12:42:22;;;;;;;5.07;3.53;;;;;;;;;;5023828;28;20551;-61
2023/06/02 12:44:49;;;;;;;9.60;3.67;;;;;;;;;;5018182;28;20279;-62
2023/06/02 12:47:15;;;;;;;7.82;3.75;;;;;;;;;;5011454;28;20021;-65
2023/06/02 12:49:40;;;;;;;8.90;3.75;;;;;;;;;;5024848;28;20227;-64
2023/06/02 12:52:05;;;;;;;15.03;4.23;;;;;;;;;;5010757;28;20038;-52
2023/06/02 12:54:30;;;;;;;24.33;7.23;;;;;;;;;;5002030;28;20337;-53
2023/06/02 12:56:56;;;;;;;18.17;5.30;;;;;;;;;;5024868;28;20846;-55
2023/06/02 12:59:21;;;;;;;15.50;4.80;;;;;;;;;;5033101;28;20024;-64
2023/06/02 13:01:46;;;;;;;13.20;4.45;;;;;;;;;;5018869;28;20830;-57
2023/06/02 13:04:12;;;;;;;10.73;6.50;;;;;;;;;;5017809;28;20029;-55
2023/06/02 13:06:37;;;;;;;14.52;6.30;;;;;;;;;;5023283;28;20071;-61
2023/06/02 13:09:03;;;;;;;549.58;473.15;;;;;;;;;;5026722;28;20484;-53
2023/06/02 13:11:28;;;;;;;9.48;5.15;;;;;;;;;;5024871;28;20091;-60
2023/06/02 13:13:54;;;;;;;14.93;5.68;;;;;;;;;;5023464;28;20532;-58
2023/06/02 13:16:19;;;;;;;13.50;5.45;;;;;;;;;;5036676;28;20022;-62
2023/06/02 13:18:47;;;;;;;12.20;5.87;;;;;;;;;;5032181;28;20250;-56
2023/06/02 13:21:12;;;;;;;9.65;5.18;;;;;;;;;;5025618;28;20577;-60
2023/06/02 13:23:38;;;;;;;18.77;7.57;;;;;;;;;;5018871;28;20713;-56
2023/06/02 13:26:03;;;;;;;12.35;4.78;;;;;;;;;;5014156;28;20489;-59
2023/06/02 13:28:30;;;;;;;13.13;5.07;;;;;;;;;;5024260;28;20083;-56
2023/06/02 13:30:55;;;;;;;10.48;4.95;;;;;;;;;;5022568;28;20440;-54
2023/06/02 13:33:21;;;;;;;15.85;5.60;;;;;;;;;;5041146;28;20435;-55
2023/06/02 13:35:46;;;;;;;12.23;4.90;;;;;;;;;;5035910;28;20022;-55
2023/06/02 13:38:12;;;;;;;11.95;5.25;;;;;;;;;;5041528;28;20643;-52
2023/06/02 13:40:39;;;;;;;14.38;5.10;;;;;;;;;;5041253;28;20032;-58
2023/06/02 13:43:04;;;;;;;9.32;4.75;;;;;;;;;;5032412;28;20397;-58
2023/06/02 13:45:29;;;;;;;22.27;5.20;;;;;;;;;;5018554;28;20076;-55
2023/06/02 13:47:55;;;;;;;10.73;5.22;;;;;;;;;;5021246;28;20266;-58
2023/06/02 13:50:20;;;;;;;13.80;5.43;;;;;;;;;;5038905;28;20032;-52
2023/06/02 13:52:45;;;;;;;12.65;5.28;;;;;;;;;;5029601;28;20040;-56
2023/06/02 13:55:11;;;;;;;18.75;7.53;;;;;;;;;;5025479;28;20017;-63
2023/06/02 13:57:37;;;;;;;108.22;99.63;;;;;;;;;;5022449;28;20022;-61
2023/06/02 14:00:03;;;;;;;18.85;10.05;;;;;;;;;;5022519;28;20385;-50
2023/06/02 14:02:28;;;;;;;14.73;6.05;;;;;;;;;;5049099;28;20038;-59
2023/06/02 14:04:54;;;;;;;13.70;5.93;;;;;;;;;;5024803;28;20033;-63
2023/06/02 14:07:19;;;;;;;17.75;4.95;;;;;;;;;;5038755;28;20435;-50
2023/06/02 14:09:45;;;;;;;10.10;4.70;;;;;;;;;;5036770;28;20061;-60
2023/06/02 14:12:10;;;;;;;8.50;4.45;;;;;;;;;;5005272;28;20068;-58
2023/06/02 14:14:36;;;;;;;11.88;5.00;;;;;;;;;;5004905;28;20053;-61
2023/06/02 14:17:01;;;;;;;15.63;5.20;;;;;;;;;;5005365;28;20088;-64
2023/06/02 14:19:26;;;;;;;17.25;4.93;;;;;;;;;;5005238;28;20407;-58
2023/06/02 14:21:51;;;;;;;10.50;4.90;;;;;;;;;;5004792;28;20355;-58
2023/06/02 14:24:17;;;;;;;16.88;5.38;;;;;;;;;;5005166;28;20413;-61
2023/06/02 14:26:42;;;;;;;14.98;4.65;;;;;;;;;;5042654;28;20533;-54